Pt. Reyes RCA field Weather observations

Data are for 10 minute period ending at time listed.
 Day   Time   Solar   Ave.   Ave.  Ave.  Vector    Max.   Stn.   Total 
  of    of     Rad.   Air    Rel.  Wind   Wind     Wind   Baro. Precip.
Year   Day            Temp.  Hum.  Speed  Dir.     Gust   Pres.        
2015   (PST)   W/m2    F      %     mph   deg.      mph    mb.    in.  
-----------------------------------------------------------------------
  58   10:30  561.0    57   78.9    21    304.6    28.4   1008.8  0.00  
  58   10:40  493.0    56   78.1    24    304.9    28.9   1008.8  0.00  
  58   10:50  554.0    56   77.6    21    306.5    26.0   1008.8  0.00  
  58   11:00  594.0    57   76.1    20    302.2    26.3   1008.8  0.00  
  58   11:10  594.0    57   76.0    19    302.4    26.7   1008.8  0.00  
  58   11:20  495.0    56   75.5    20    306.5    24.6   1008.5  0.00  
  58   11:30  567.0    56   75.7    20    304.6    24.7   1008.5  0.00  
  58   11:40  632.0    57   75.5    19    298.5    25.1   1008.1  0.00  
  58   11:50  636.0    57   74.1    18    295.5    25.2   1008.1  0.00  
  58   12:00  638.0    58   73.3    20    290.5    27.1   1007.8  0.00  
  58   12:10  642.0    57   74.7    21    286.8    28.1   1007.8  0.00  
  58   12:20  643.0    58   73.8    20    287.8    26.6   1007.5  0.00  
  58   12:30  642.0    57   75.6    23    288.5    31.6   1007.1  0.00  
  58   12:40  633.0    56   76.1    27    288.8    33.2   1006.8  0.00  
  58   12:50  626.0    57   75.9    23    295.0    28.8   1006.8  0.00  
  58   13:00  626.0    57   74.2    24    290.6    31.9   1006.8  0.00  
  58   13:10  619.0    57   74.2    23    290.3    29.2   1006.4  0.00  
  58   13:20  610.0    56   75.6    24    299.5    32.9   1006.4  0.00  
  58   13:30  601.0    57   74.5    22    299.5    32.0   1006.4  0.00  
  58   13:40  589.0    57   73.8    22    298.5    30.5   1006.1  0.00  
  58   13:50  576.0    57   72.7    23    295.1    33.2   1006.1  0.00  
  58   14:00  561.0    58   72.4    23    293.2    32.1   1006.1  0.00  
  58   14:10  545.0    57   74.1    22    296.6    30.2   1006.1  0.00  
  58   14:20  527.0    57   73.2    24    292.5    33.9   1005.8  0.00  
  58   14:30  508.0    57   73.2    24    296.2    32.4   1005.8  0.00  
  58   14:40  489.0    56   74.4    26    290.9    33.8   1005.4  0.00  
  58   14:50  469.0    56   73.8    24    292.1    31.0   1005.4  0.00  
  58   15:00  448.0    56   73.0    26    293.0    33.0   1005.4  0.00  
  58   15:10  424.0    56   74.1    26    294.4    34.3   1005.4  0.00  
  58   15:20  402.0    56   77.0    24    299.6    32.4   1005.4  0.00  
  58   15:30  379.0    56   75.1    25    298.7    31.7   1005.4  0.00  
  58   15:40  353.0    55   75.6    25    299.9    32.4   1005.4  0.00  
  58   15:50  327.0    55   76.7    24    299.7    31.4   1005.4  0.00  
  58   16:00  303.0    55   76.1    24    299.8    30.8   1005.4  0.00  
  58   16:10  278.0    55   76.4    23    299.6    28.1   1005.1  0.00  
  58   16:20  249.0    54   77.4    23    297.8    30.0   1005.1  0.00  
  58   16:30  226.0    55   77.3    21    294.6    30.8   1005.1  0.00  
  58   16:40  192.0    54   76.8    24    292.4    32.6   1005.1  0.00  
  58   16:50  170.0    54   76.7    24    296.2    32.4   1004.7  0.00  
  58   17:00  140.0    54   77.4    25    295.9    32.4   1004.7  0.00  
  58   17:10  123.0    53   77.8    25    297.5    33.2   1004.7  0.00  
  58   17:20   91.0    53   77.8    25    297.6    31.5   1004.7  0.00  
  58   17:30   51.0    53   79.1    24    297.6    31.9   1004.7  0.00  
  58   17:40   29.0    52   79.5    27    300.4    35.4   1004.7  0.00  
  58   17:50   10.0    52   80.5    27    299.9    38.3   1004.4  0.00  
  58   18:00    7.0    52   80.7    26    301.0    31.7   1004.7  0.00  
  58   18:10    3.0    52   80.4    25    303.6    32.4   1004.7  0.00  
  58   18:20    0.0    52   81.7    24    305.5    31.1   1004.7  0.00  
  58   18:30    0.0    52   81.8    24    305.6    30.0   1004.4  0.00  
  58   18:40    0.0    52   80.9    26    305.8    33.5   1004.4  0.00  
  58   18:50    0.0    51   83.2    26    305.9    33.6   1004.4  0.00  
  58   19:00    0.0    51   83.2    25    305.2    32.9   1004.4  0.00  
  58   19:10    0.0    51   82.1    26    303.8    33.1   1004.4  0.00  
  58   19:20    0.0    52   81.0    26    303.7    31.2   1004.1  0.00  
  58   19:30    0.0    51   79.9    27    301.2    34.9   1004.1  0.00  
  58   19:40    0.0    51   80.6    27    302.0    33.4   1004.1  0.00  
  58   19:50    0.0    51   81.3    26    303.2    33.2   1004.1  0.00  
  58   20:00    0.0    51   82.8    23    306.7    29.3   1004.1  0.00  
  58   20:10    0.0    52   82.5    25    307.0    31.3   1004.1  0.00  
  58   20:20    0.0    51   82.3    23    307.0    30.7   1004.1  0.00  
  58   20:30    0.0    51   83.0    23    310.0    30.4   1004.1  0.00  
  58   20:40    0.0    51   83.2    22    310.6    28.4   1004.1  0.00  
  58   20:50    0.0    51   82.1    22    311.0    27.9   1004.4  0.00  
  58   21:00    0.0    52   83.1    22    312.5    29.6   1004.4  0.00  
  58   21:10    0.0    51   83.9    22    312.8    27.8   1004.4  0.00  
  58   21:20    0.0    51   84.0    22    310.7    30.5   1004.4  0.00  
  58   21:30    0.0    51   84.0    22    311.6    30.3   1004.4  0.00  
  58   21:40    0.0    51   82.8    24    314.7    30.5   1004.4  0.00  
  58   21:50    0.0    51   82.8    23    312.2    29.0   1004.4  0.00  
  58   22:00    0.0    51   83.0    23    313.0    30.3   1004.1  0.00  
  58   22:10    0.0    51   82.1    23    313.3    31.0   1004.4  0.00  
  58   22:20    0.0    51   82.5    23    310.9    28.6   1004.4  0.00  
  58   22:30    0.0    51   82.6    21    314.1    26.7   1004.4  0.00  
  58   22:40    0.0    51   84.0    21    310.5    27.4   1004.1  0.00  
  58   22:50    0.0    50   83.4    21    310.3    27.5   1004.1  0.00  
  58   23:00    0.0    50   82.4    21    312.2    28.4   1004.1  0.00  
  58   23:10    0.0    51   82.5    21    313.4    27.9   1004.1  0.00  
  58   23:20    0.0    51   81.9    21    309.4    26.3   1003.7  0.00  
  58   23:30    0.0    51   82.1    21    308.7    24.3   1003.7  0.00  
  58   23:40    0.0    51   83.2    19    309.7    24.6   1003.7  0.00  
  58   23:50    0.0    51   83.5    20    312.6    25.5   1003.7  0.00  
  59    0:00    0.0    51   83.7    19    314.9    25.1   1003.7  0.00  
  59    0:10    0.0    51   83.0    19    313.6    24.1   1003.7  0.00  
  59    0:20    0.0    51   83.6    18    308.1    24.6   1003.7  0.00  
  59    0:30    0.0    50   84.7    18    304.6    23.1   1003.4  0.00  
  59    0:40    0.0    50   85.4    18    302.4    23.7   1003.7  0.00  
  59    0:50    0.0    51   84.4    19    304.4    24.1   1003.7  0.00  
  59    1:00    0.0    51   83.1    17    305.8    24.1   1003.7  0.00  
  59    1:10    0.0    50   82.9    16    304.1    20.7   1003.7  0.00  
  59    1:20    0.0    50   84.2    16    307.0    21.1   1003.7  0.00  
  59    1:30    0.0    50   84.2    16    304.3    20.5   1003.7  0.00  
  59    1:40    0.0    50   83.7    16    309.6    19.8   1003.7  0.00  
  59    1:50    0.0    50   81.8    17    305.9    20.5   1003.7  0.00  
  59    2:00    0.0    50   81.6    17    302.6    21.5   1003.7  0.00  
  59    2:10    0.0    50   83.3    17    301.9    21.5   1003.7  0.00  
  59    2:20    0.0    50   84.9    16    301.1    21.0   1003.7  0.00  
  59    2:30    0.0    50   85.2    17    301.6    20.6   1003.4  0.00  
  59    2:40    0.0    50   84.4    17    300.7    20.8   1003.4  0.00  
  59    2:50    0.0    50   84.1    16    301.1    21.3   1003.4  0.00  
  59    3:00    0.0    50   85.9    14    304.0    18.1   1003.1  0.00  
  59    3:10    0.0    50   85.8    14    301.8    18.9   1003.1  0.00  
  59    3:20    0.0    50   84.7    16    304.5    20.0   1003.1  0.00  
  59    3:30    0.0    50   84.3    15    306.2    19.3   1003.1  0.00  
  59    3:40    0.0    50   85.2    14    308.4    19.5   1003.1  0.00  
  59    3:50    0.0    50   86.0    13    306.7    16.7   1003.1  0.00  
  59    4:00    0.0    50   85.9    14    309.4    17.6   1003.1  0.00  
  59    4:10    0.0    50   86.3    15    311.1    19.6   1003.1  0.00  
  59    4:20    0.0    50   86.0    14    309.9    18.2   1003.1  0.00  
  59    4:30    0.0    50   84.9    14    312.0    18.0   1003.1  0.00  
  59    4:40    0.0    50   85.2    13    313.6    17.7   1003.1  0.00  
  59    4:50    0.0    49   85.7    13    315.5    17.2   1003.1  0.00  
  59    5:00    0.0    50   85.6    14    315.8    18.0   1003.1  0.00  
  59    5:10    0.0    50   85.5    14    315.5    18.0   1003.1  0.00  
  59    5:20    0.0    50   86.6    13    313.9    17.1   1003.1  0.00  
  59    5:30    0.0    50   87.3    13    313.2    18.1   1003.1  0.00  
  59    5:40    0.0    49   87.4    13    313.9    18.4   1003.1  0.00  
  59    5:50    0.0    49   87.3    14    311.5    17.5   1003.4  0.00  
  59    6:00    0.0    49   86.8    12    310.7    16.2   1003.4  0.00  
  59    6:10    0.0    49   85.8    15    310.4    19.2   1003.4  0.00  
  59    6:20    0.0    49   84.9    15    310.2    19.2   1003.4  0.00  
  59    6:30    0.0    49   85.6    14    311.6    18.4   1003.4  0.00  
  59    6:40    0.0    49   86.1    13    312.7    16.9   1003.7  0.00  
  59    6:50    4.0    49   86.4    13    311.4    17.2   1003.7  0.00  
  59    7:00    9.0    49   86.4    13    315.4    17.8   1003.7  0.00  
  59    7:10   15.0    49   86.9    13    311.5    18.3   1003.7  0.00  
  59    7:20   40.0    50   86.2    13    312.6    17.6   1003.7  0.00  
  59    7:30   96.0    50   85.2    13    313.7    17.7   1003.7  0.00  
  59    7:40  101.0    50   83.7    14    315.7    17.7   1003.7  0.00  
  59    7:50  127.0    51   84.5    13    312.8    17.5   1004.1  0.00  
  59    8:00  174.0    51   84.2    13    317.1    16.2   1004.1  0.00  
  59    8:10  209.0    51   83.1    14    315.0    19.3   1004.1  0.00  
  59    8:20  236.0    52   82.0    14    317.1    18.5   1004.4  0.00  
  59    8:30  265.0    52   81.0    14    321.5    17.5   1004.4  0.00  
  59    8:40  292.0    52   79.1    15    324.6    17.7   1004.4  0.00  
  59    8:50  319.0    53   77.9    13    317.6    16.6   1004.4  0.00  
  59    9:00  346.0    53   76.1    13    316.2    16.2   1004.7  0.00  
  59    9:10  374.0    53   76.2    13    321.5    15.5   1004.7  0.00  
  59    9:20  398.0    53   75.8    13    319.4    14.9   1004.7  0.00  
  59    9:30  422.0    53   74.5    11    320.3    14.0   1004.7  0.00  
  59    9:40  447.0    53   73.7    10    318.4    12.9   1004.7  0.00  
  59    9:50  470.0    53   73.6     9    319.8    13.1   1005.1  0.00  
  59   10:00  490.0    53   72.8     9    315.4    12.1   1005.1  0.00  
  59   10:10  510.0    54   69.9     9    318.1    12.3   1005.1  0.00  
  59   10:20  528.0    54   68.6     9    311.2    13.7   1005.4  0.00  

Return to Pt. Reyes graphs page.


Western Regional Climate Center,wrcc@dri.edu